Rhyl, United Kingdom

3:25 PM GMT on December 21, 2014 (GMT +0000)
Rhuddlan | Change Station
CLOSE
Current Station
Personal Weather Station
Location: Rhyl, DENBIGHSHIRE
Elevation: 58 ft
Nearby Weather Stations

Elev 58 ft 53.29 °N, 3.49 °W | Updated 9 minutes ago

Partly Cloudy
Partly Cloudy
53.7 °F
Feels Like 53.7 °F
N
47.0
Wind Variable Wind from WSW
Gusts 60.0 mph

Today
High -- | Low -- °F
--% Chance of Precip.
Yesterday
High -- | Low -- °F
Precip. -- in
8:26 AM 3:57 PM
Waning Crescent, 0% visible
Pressure 30.06 in
Visibility 6.2 miles
Clouds Few 2000 ft
Dew Point 49 °F
Humidity 84%
Rainfall 0.00 in
Snow Depth Not available.
UV 0.0 out of 12
Pollen Not available.
Air Quality Not available.
Flu Activity Not available.
METAR EGNR 211520Z 23025KT 9999 FEW020 13/09 Q1018

More Conditions Fewer Conditions

Pressure 30.06 in
Visibility 6.2 miles
Clouds Few 2000 ft
Dew Point 49 °F
Humidity 84%
Rainfall 0.00 in
Snow Depth Not available.
UV 0.0 out of 12
Pollen Not available.
Air Quality Not available.
Flu Activity Not available.
METAR EGNR 211520Z 23025KT 9999 FEW020 13/09 Q1018

More Conditions Fewer Conditions

10-Day Weather Forecast

Almanac

Astronomy

Dec. 21, 2014 Rise Set
Actual Time
Civil Twilight
Nautical Twilight
Astronomical Twilight
Moon
Length of Visible Light
Length of Day
Tomorrow will be .
, % of the Moon is Illuminated

Today's Extremes

Country Highs Country Lows

Community

WunderPhotos

Upload Photos

1,779,412 photos uploaded!

WunderBlogs® & News

Nearby

Air Quality

  Air Quality AQ Index Pollutant
Not available.

Snow Depth

Station Depth Elevation

Earthquake Activity

City Distance Mag. Time & Date
Minimum magnitude displayed is 2.5.

Coastal Water Temperatures

Place Temperature

Nearby Weather Stations